Time;durP1;ratioP1;P1;durP2;ratioP2;P2;SDS_P1;SDS_P2;PMS_P1;PMS_P2;Temp;Humidity;BMP_temperature;BMP_pressure;BME280_temperature;BME280_humidity;BME280_pressure;Samples;Min_cycle;Max_cycle;Signal;HPM_P1;HPM_P2
2022/07/09 00:02:59;;;;;;;7.82;3.10;;;;;;;;;;6191243;28;20062;-88
2022/07/09 00:05:59;;;;;;;12.48;3.55;;;;;;;;;;6189995;28;20014;-89
2022/07/09 00:09:00;;;;;;;9.43;3.13;;;;;;;;;;6189768;28;20102;-88
2022/07/09 00:12:00;;;;;;;7.60;2.67;;;;;;;;;;6190095;28;20469;-89
2022/07/09 00:15:00;;;;;;;9.13;2.57;;;;;;;;;;6189347;28;20010;-88
2022/07/09 00:18:00;;;;;;;6.83;2.77;;;;;;;;;;6198383;28;20105;-88
2022/07/09 00:21:01;;;;;;;5.33;2.70;;;;;;;;;;6189630;28;20026;-88
2022/07/09 00:24:01;;;;;;;7.00;3.50;;;;;;;;;;6187449;28;20533;-88
2022/07/09 00:27:01;;;;;;;9.30;3.93;;;;;;;;;;6186854;28;20030;-88
2022/07/09 00:30:01;;;;;;;6.93;2.23;;;;;;;;;;6188817;28;20549;-88
2022/07/09 00:33:02;;;;;;;6.47;3.03;;;;;;;;;;6189438;28;20486;-88
2022/07/09 00:36:02;;;;;;;8.27;3.13;;;;;;;;;;6189346;28;20108;-88
2022/07/09 00:39:02;;;;;;;6.87;3.20;;;;;;;;;;6192017;28;20141;-88
2022/07/09 00:42:07;;;;;;;4.83;2.47;;;;;;;;;;6194378;28;20023;-88
2022/07/09 00:45:07;;;;;;;6.88;2.80;;;;;;;;;;6195858;28;20010;-88
2022/07/09 00:48:07;;;;;;;6.80;2.90;;;;;;;;;;6189153;28;20053;-88
2022/07/09 00:51:08;;;;;;;5.60;2.97;;;;;;;;;;6186192;28;20014;-88
2022/07/09 00:54:08;;;;;;;9.02;4.57;;;;;;;;;;6194447;28;20515;-88
2022/07/09 00:57:09;;;;;;;6.80;3.00;;;;;;;;;;6183799;28;20516;-88
2022/07/09 01:00:09;;;;;;;6.60;3.63;;;;;;;;;;6189595;28;20552;-88
2022/07/09 01:03:10;;;;;;;5.60;3.07;;;;;;;;;;6187829;28;20030;-89
2022/07/09 01:06:10;;;;;;;11.30;3.27;;;;;;;;;;6187947;28;20375;-88
2022/07/09 01:09:11;;;;;;;8.00;3.05;;;;;;;;;;6189835;28;20064;-88
2022/07/09 01:12:11;;;;;;;5.50;3.30;;;;;;;;;;6191996;28;20306;-88
2022/07/09 01:15:11;;;;;;;6.17;3.77;;;;;;;;;;6183050;28;20088;-88
2022/07/09 01:18:12;;;;;;;7.97;3.47;;;;;;;;;;6197953;28;20053;-89
2022/07/09 01:21:15;;;;;;;13.30;4.07;;;;;;;;;;6185265;28;20022;-88
2022/07/09 01:24:15;;;;;;;5.55;3.00;;;;;;;;;;6191393;28;20045;-88
2022/07/09 01:27:15;;;;;;;8.37;4.03;;;;;;;;;;6187698;28;20034;-89
2022/07/09 01:30:28;;;;;;;6.93;2.90;;;;;;;;;;6188706;28;20046;-88
2022/07/09 01:33:28;;;;;;;8.63;3.95;;;;;;;;;;6192800;28;20026;-88
2022/07/09 01:36:28;;;;;;;7.00;3.10;;;;;;;;;;6186335;28;20038;-88
2022/07/09 01:39:28;;;;;;;5.70;2.63;;;;;;;;;;6189313;28;20025;-88
2022/07/09 01:42:29;;;;;;;5.23;2.80;;;;;;;;;;6188313;28;20197;-89
2022/07/09 01:45:29;;;;;;;6.57;3.25;;;;;;;;;;6189171;28;20089;-88
2022/07/09 01:48:29;;;;;;;4.83;2.60;;;;;;;;;;6190581;28;20490;-88
2022/07/09 01:51:29;;;;;;;6.47;3.13;;;;;;;;;;6183034;28;20057;-88
2022/07/09 01:54:29;;;;;;;5.23;2.73;;;;;;;;;;6185585;28;20286;-88
2022/07/09 01:57:30;;;;;;;9.17;3.13;;;;;;;;;;6186525;28;20295;-88
2022/07/09 02:00:30;;;;;;;6.70;3.00;;;;;;;;;;6188699;28;20026;-88
2022/07/09 02:03:30;;;;;;;8.63;2.97;;;;;;;;;;6185895;28;20026;-88
2022/07/09 02:06:30;;;;;;;9.63;3.00;;;;;;;;;;6187507;28;20490;-88
2022/07/09 02:09:31;;;;;;;6.30;2.70;;;;;;;;;;6194951;28;20021;-88
2022/07/09 02:12:31;;;;;;;8.33;2.97;;;;;;;;;;6187066;28;20026;-88
2022/07/09 02:15:31;;;;;;;10.03;3.40;;;;;;;;;;6192778;28;20152;-88
2022/07/09 02:18:31;;;;;;;5.80;3.03;;;;;;;;;;6191129;28;20022;-88
2022/07/09 02:21:32;;;;;;;7.43;2.97;;;;;;;;;;6189854;28;20903;-88
2022/07/09 02:24:32;;;;;;;12.77;4.40;;;;;;;;;;6188308;28;20138;-88
2022/07/09 02:27:33;;;;;;;7.20;2.90;;;;;;;;;;6188330;28;20014;-88
2022/07/09 02:30:34;;;;;;;6.72;2.75;;;;;;;;;;6183359;28;20461;-88
2022/07/09 02:33:34;;;;;;;5.75;3.15;;;;;;;;;;6181614;28;20029;-88
2022/07/09 02:36:34;;;;;;;6.50;2.90;;;;;;;;;;6192595;28;20448;-88
2022/07/09 02:39:35;;;;;;;7.10;2.72;;;;;;;;;;6190660;28;20558;-88
2022/07/09 02:42:36;;;;;;;5.23;2.97;;;;;;;;;;6187719;28;20057;-90
2022/07/09 02:45:36;;;;;;;7.80;3.15;;;;;;;;;;6193125;28;20030;-88
2022/07/09 02:48:37;;;;;;;6.57;3.88;;;;;;;;;;6186115;28;20518;-88
2022/07/09 02:51:37;;;;;;;10.30;3.47;;;;;;;;;;6188996;28;20266;-88
2022/07/09 02:54:37;;;;;;;8.50;2.90;;;;;;;;;;6188011;28;20036;-88
2022/07/09 02:57:37;;;;;;;7.77;3.43;;;;;;;;;;6192579;28;20022;-88
2022/07/09 03:00:41;;;;;;;7.63;3.07;;;;;;;;;;6188289;28;20101;-89
2022/07/09 03:03:41;;;;;;;9.30;3.33;;;;;;;;;;6187041;28;20062;-88
2022/07/09 03:06:41;;;;;;;6.80;3.27;;;;;;;;;;6180610;28;20504;-88
2022/07/09 03:09:42;;;;;;;9.77;3.08;;;;;;;;;;6188349;28;20339;-88
2022/07/09 03:12:42;;;;;;;9.25;3.15;;;;;;;;;;6186776;28;20019;-88
2022/07/09 03:15:42;;;;;;;7.80;3.53;;;;;;;;;;6186765;28;20394;-88
2022/07/09 03:18:43;;;;;;;7.38;4.00;;;;;;;;;;6187498;28;20569;-88
2022/07/09 03:21:43;;;;;;;7.63;3.83;;;;;;;;;;6195219;28;20247;-88
2022/07/09 03:24:43;;;;;;;8.02;3.28;;;;;;;;;;6185938;28;20038;-88
2022/07/09 03:27:44;;;;;;;9.98;4.22;;;;;;;;;;6189158;28;20030;-88
2022/07/09 03:30:45;;;;;;;5.63;3.42;;;;;;;;;;6189213;28;20280;-88
2022/07/09 03:33:45;;;;;;;9.65;3.78;;;;;;;;;;6193770;28;20026;-88
2022/07/09 03:36:45;;;;;;;6.33;2.90;;;;;;;;;;6184760;28;20041;-88
2022/07/09 03:39:45;;;;;;;6.30;3.40;;;;;;;;;;6183147;28;20054;-88
2022/07/09 03:42:45;;;;;;;14.43;3.58;;;;;;;;;;6195026;28;20769;-88
2022/07/09 03:45:46;;;;;;;8.27;3.37;;;;;;;;;;6193458;28;20060;-88
2022/07/09 03:48:48;;;;;;;10.20;3.63;;;;;;;;;;6186941;28;20393;-88
2022/07/09 03:51:49;;;;;;;7.85;3.30;;;;;;;;;;6193345;28;20331;-88
2022/07/09 03:54:49;;;;;;;7.67;2.93;;;;;;;;;;6194614;28;20286;-88
2022/07/09 03:57:49;;;;;;;8.25;3.17;;;;;;;;;;6189604;28;20101;-88
2022/07/09 04:00:52;;;;;;;6.63;3.50;;;;;;;;;;6192942;28;20470;-88
2022/07/09 04:03:52;;;;;;;11.07;2.67;;;;;;;;;;6189992;28;20022;-88
2022/07/09 04:06:54;;;;;;;5.43;2.57;;;;;;;;;;6197194;28;20025;-89
2022/07/09 04:09:55;;;;;;;11.82;2.55;;;;;;;;;;6188488;28;20026;-87
2022/07/09 04:12:55;;;;;;;5.03;2.20;;;;;;;;;;6191138;28;20058;-88
2022/07/09 04:15:55;;;;;;;5.90;3.03;;;;;;;;;;6189343;28;20053;-88
2022/07/09 04:18:55;;;;;;;9.33;3.60;;;;;;;;;;6189150;28;20042;-88
2022/07/09 04:21:55;;;;;;;8.33;3.17;;;;;;;;;;6188810;28;20403;-88
2022/07/09 04:24:56;;;;;;;8.23;3.90;;;;;;;;;;6187637;28;20525;-89
2022/07/09 04:27:56;;;;;;;9.00;2.97;;;;;;;;;;6188113;28;20018;-88
2022/07/09 04:30:56;;;;;;;6.30;3.30;;;;;;;;;;6187830;28;20026;-89
2022/07/09 04:33:56;;;;;;;8.97;3.10;;;;;;;;;;6188100;28;20030;-88
2022/07/09 04:36:57;;;;;;;7.77;3.03;;;;;;;;;;6188594;28;20142;-88
2022/07/09 04:39:57;;;;;;;4.47;2.83;;;;;;;;;;6188386;28;20547;-89
2022/07/09 04:42:57;;;;;;;4.80;2.25;;;;;;;;;;6188086;28;20019;-88
2022/07/09 04:45:57;;;;;;;8.23;2.70;;;;;;;;;;6188195;28;20026;-89
2022/07/09 04:48:57;;;;;;;9.77;2.60;;;;;;;;;;6181860;28;20027;-88
2022/07/09 04:51:58;;;;;;;6.57;2.73;;;;;;;;;;6175592;28;20100;-88
2022/07/09 04:54:58;;;;;;;8.55;2.58;;;;;;;;;;6181662;28;20110;-88
2022/07/09 04:57:58;;;;;;;9.30;3.10;;;;;;;;;;6187744;28;20022;-88
2022/07/09 05:00:58;;;;;;;7.40;2.63;;;;;;;;;;6186439;28;20019;-90
2022/07/09 05:03:58;;;;;;;8.60;2.43;;;;;;;;;;6187887;28;20153;-88
2022/07/09 05:06:59;;;;;;;8.30;2.63;;;;;;;;;;6196404;28;20021;-88
2022/07/09 05:10:02;;;;;;;8.97;2.57;;;;;;;;;;6189776;28;20050;-88
2022/07/09 05:13:02;;;;;;;9.25;2.38;;;;;;;;;;6194740;28;20077;-88
2022/07/09 05:16:03;;;;;;;6.40;2.60;;;;;;;;;;6193069;28;20041;-88
2022/07/09 05:19:03;;;;;;;7.07;2.67;;;;;;;;;;6193378;28;20011;-88
2022/07/09 05:22:04;;;;;;;4.97;2.33;;;;;;;;;;6184779;28;20446;-88
2022/07/09 05:25:05;;;;;;;9.53;2.47;;;;;;;;;;6173181;28;20419;-88
2022/07/09 05:28:05;;;;;;;7.63;2.80;;;;;;;;;;6171289;28;20070;-88
2022/07/09 05:31:05;;;;;;;8.13;3.13;;;;;;;;;;6183938;28;20030;-88
2022/07/09 05:34:06;;;;;;;12.03;4.27;;;;;;;;;;6180668;28;20018;-88
2022/07/09 05:37:06;;;;;;;9.47;3.13;;;;;;;;;;6181472;28;20054;-88
2022/07/09 05:40:07;;;;;;;5.93;2.97;;;;;;;;;;6185663;28;20501;-89
2022/07/09 05:43:07;;;;;;;8.13;3.50;;;;;;;;;;6175486;28;20292;-88
2022/07/09 05:46:07;;;;;;;5.70;2.40;;;;;;;;;;6176041;28;20356;-88
2022/07/09 05:49:07;;;;;;;4.47;2.07;;;;;;;;;;6172573;28;20026;-88
2022/07/09 05:52:08;;;;;;;7.17;3.10;;;;;;;;;;6178132;28;20161;-88
2022/07/09 05:55:11;;;;;;;4.83;2.20;;;;;;;;;;6173047;28;20045;-89
2022/07/09 05:58:12;;;;;;;6.13;2.40;;;;;;;;;;6170929;28;20029;-89
2022/07/09 06:01:13;;;;;;;10.07;3.00;;;;;;;;;;6173945;28;20649;-89
2022/07/09 06:04:13;;;;;;;5.03;2.40;;;;;;;;;;6177861;28;20433;-88
2022/07/09 06:07:14;;;;;;;4.00;2.57;;;;;;;;;;6172377;28;20022;-88
2022/07/09 06:10:19;;;;;;;9.70;2.87;;;;;;;;;;6186718;28;20022;-89
2022/07/09 06:13:19;;;;;;;7.78;2.53;;;;;;;;;;6185416;28;20446;-88
2022/07/09 06:16:20;;;;;;;7.23;3.40;;;;;;;;;;6184170;28;20026;-88
2022/07/09 06:19:23;;;;;;;5.80;2.90;;;;;;;;;;6186822;28;20042;-88
2022/07/09 06:22:23;;;;;;;6.88;2.28;;;;;;;;;;6173964;28;20019;-88
2022/07/09 06:25:23;;;;;;;10.60;2.97;;;;;;;;;;6182510;28;20524;-88
2022/07/09 06:28:23;;;;;;;3.77;2.80;;;;;;;;;;6186082;28;20386;-88
2022/07/09 06:31:24;;;;;;;9.00;2.40;;;;;;;;;;6172884;28;20031;-88
2022/07/09 06:34:24;;;;;;;8.40;2.73;;;;;;;;;;6175368;28;20030;-87
2022/07/09 06:37:24;;;;;;;7.67;2.63;;;;;;;;;;6180020;28;20030;-88
2022/07/09 06:40:24;;;;;;;2.93;1.57;;;;;;;;;;6172799;28;20007;-87
2022/07/09 06:43:25;;;;;;;9.43;3.93;;;;;;;;;;6178781;28;20019;-86
2022/07/09 06:46:28;;;;;;;7.43;2.77;;;;;;;;;;6176670;28;20411;-87
2022/07/09 06:49:30;;;;;;;5.68;1.90;;;;;;;;;;6178269;28;20027;-87
2022/07/09 06:52:31;;;;;;;5.25;1.88;;;;;;;;;;6179438;28;20506;-87
2022/07/09 06:55:31;;;;;;;5.20;1.93;;;;;;;;;;6183645;28;20141;-87
2022/07/09 06:58:31;;;;;;;4.17;1.57;;;;;;;;;;6180821;28;20128;-88
2022/07/09 07:01:31;;;;;;;4.97;1.50;;;;;;;;;;6179951;28;20021;-87
2022/07/09 07:04:32;;;;;;;3.47;1.50;;;;;;;;;;6176114;28;20338;-88
2022/07/09 07:07:32;;;;;;;11.93;2.07;;;;;;;;;;6184296;28;20219;-88
2022/07/09 07:10:32;;;;;;;1.13;1.00;;;;;;;;;;6178031;28;20257;-87
2022/07/09 07:13:32;;;;;;;3.87;1.33;;;;;;;;;;6181421;28;20390;-88
2022/07/09 07:16:33;;;;;;;4.10;1.47;;;;;;;;;;6179976;28;20055;-87
2022/07/09 07:19:33;;;;;;;4.37;1.60;;;;;;;;;;6181894;28;20196;-87
2022/07/09 07:22:34;;;;;;;6.10;1.83;;;;;;;;;;6181442;28;20022;-88
2022/07/09 07:25:35;;;;;;;3.78;1.50;;;;;;;;;;6181472;28;20117;-87
2022/07/09 07:28:35;;;;;;;2.93;1.20;;;;;;;;;;6187849;28;20031;-86
2022/07/09 07:31:35;;;;;;;6.00;1.50;;;;;;;;;;6188221;28;20022;-87
2022/07/09 07:34:35;;;;;;;4.28;1.52;;;;;;;;;;6188956;28;20026;-87
2022/07/09 07:37:35;;;;;;;5.57;1.60;;;;;;;;;;6188365;28;20030;-87
2022/07/09 07:40:36;;;;;;;3.05;1.80;;;;;;;;;;6182836;28;20050;-87
2022/07/09 07:43:36;;;;;;;4.57;1.65;;;;;;;;;;6182667;28;20022;-86
2022/07/09 07:46:36;;;;;;;4.47;1.57;;;;;;;;;;6186067;28;20109;-86
2022/07/09 07:49:37;;;;;;;4.10;2.50;;;;;;;;;;6188973;28;20022;-87
2022/07/09 07:52:37;;;;;;;3.33;1.90;;;;;;;;;;6189289;28;20029;-87
2022/07/09 07:55:37;;;;;;;6.77;2.60;;;;;;;;;;6188227;28;20034;-87
2022/07/09 07:58:37;;;;;;;5.53;1.83;;;;;;;;;;6190492;28;20033;-87
2022/07/09 08:01:37;;;;;;;4.93;2.30;;;;;;;;;;6190999;28;20062;-88
2022/07/09 08:04:38;;;;;;;11.27;3.00;;;;;;;;;;6186797;28;20170;-88
2022/07/09 08:07:38;;;;;;;5.97;2.63;;;;;;;;;;6188610;28;20493;-88
2022/07/09 08:10:38;;;;;;;3.70;2.40;;;;;;;;;;6189020;28;20475;-88
2022/07/09 08:13:39;;;;;;;6.73;2.40;;;;;;;;;;6180597;28;20474;-88
2022/07/09 08:16:39;;;;;;;3.65;2.72;;;;;;;;;;6180097;28;20388;-88
2022/07/09 08:19:39;;;;;;;4.33;2.43;;;;;;;;;;6191071;28;20081;-87
2022/07/09 08:22:40;;;;;;;5.88;3.10;;;;;;;;;;6185708;28;20022;-87
2022/07/09 08:25:40;;;;;;;5.57;2.93;;;;;;;;;;6188732;28;20221;-88
2022/07/09 08:28:40;;;;;;;6.63;3.00;;;;;;;;;;6188876;28;20033;-87
2022/07/09 08:31:40;;;;;;;5.73;2.90;;;;;;;;;;6189394;28;20019;-87
2022/07/09 08:34:41;;;;;;;6.90;2.83;;;;;;;;;;6185335;28;20018;-87
2022/07/09 08:37:41;;;;;;;4.67;2.30;;;;;;;;;;6188828;28;20022;-87
2022/07/09 08:40:41;;;;;;;10.57;3.27;;;;;;;;;;6184963;28;20424;-87
2022/07/09 08:43:41;;;;;;;4.93;3.33;;;;;;;;;;6182726;28;20029;-87
2022/07/09 08:46:42;;;;;;;6.43;3.90;;;;;;;;;;6180773;28;20235;-87
2022/07/09 08:49:44;;;;;;;7.33;4.17;;;;;;;;;;6172904;28;20030;-87
2022/07/09 08:52:45;;;;;;;10.43;4.22;;;;;;;;;;6180285;28;20117;-87
2022/07/09 08:55:45;;;;;;;6.60;3.73;;;;;;;;;;6186520;28;20403;-87
2022/07/09 08:58:45;;;;;;;10.53;4.40;;;;;;;;;;6181277;28;20429;-87
2022/07/09 09:01:46;;;;;;;10.93;4.37;;;;;;;;;;6178220;28;20471;-87
2022/07/09 09:04:46;;;;;;;7.17;4.40;;;;;;;;;;6181990;28;20023;-87
2022/07/09 09:07:46;;;;;;;8.43;4.23;;;;;;;;;;6180176;28;20026;-88
2022/07/09 09:10:47;;;;;;;6.30;3.37;;;;;;;;;;6178204;28;20506;-87
2022/07/09 09:13:48;;;;;;;8.73;4.17;;;;;;;;;;6174608;28;20065;-88
2022/07/09 09:16:48;;;;;;;9.43;5.03;;;;;;;;;;6174553;28;20565;-87
2022/07/09 09:19:49;;;;;;;5.17;3.33;;;;;;;;;;6181092;28;20097;-88
2022/07/09 09:22:53;;;;;;;9.27;3.53;;;;;;;;;;6185512;28;20469;-88
2022/07/09 09:25:53;;;;;;;7.93;3.63;;;;;;;;;;6187475;28;20057;-87
2022/07/09 09:28:59;;;;;;;6.35;3.92;;;;;;;;;;6187180;28;20022;-87
2022/07/09 09:32:08;;;;;;;5.28;3.28;;;;;;;;;;6182493;28;20050;-88
2022/07/09 09:35:08;;;;;;;7.15;3.90;;;;;;;;;;6185091;28;20438;-88
2022/07/09 09:38:08;;;;;;;7.45;3.13;;;;;;;;;;6183608;28;20038;-88
2022/07/09 09:41:09;;;;;;;9.10;3.45;;;;;;;;;;6185492;28;20231;-87
2022/07/09 09:44:10;;;;;;;7.33;3.60;;;;;;;;;;6187096;28;20363;-88
2022/07/09 09:47:10;;;;;;;;;;;;;;;;;;6182253;28;20082;-88
2022/07/09 09:50:14;;;;;;;9.33;3.33;;;;;;;;;;6187381;28;20324;-88
2022/07/09 09:53:14;;;;;;;3.38;2.63;;;;;;;;;;6183058;28;20066;-88
2022/07/09 09:56:15;;;;;;;8.25;2.78;;;;;;;;;;6181250;28;20372;-88
2022/07/09 09:59:16;;;;;;;4.25;2.08;;;;;;;;;;6186392;28;20010;-88
2022/07/09 10:02:16;;;;;;;4.33;2.27;;;;;;;;;;6187083;28;20156;-89
2022/07/09 10:05:17;;;;;;;4.65;1.60;;;;;;;;;;6177015;28;20368;-88
2022/07/09 10:08:17;;;;;;;4.30;2.33;;;;;;;;;;6179395;28;20130;-88
2022/07/09 10:11:17;;;;;;;5.80;2.90;;;;;;;;;;6189136;28;20032;-88
2022/07/09 10:14:23;;;;;;;6.97;2.90;;;;;;;;;;6183133;28;20026;-88
2022/07/09 10:17:24;;;;;;;8.23;2.67;;;;;;;;;;6202655;28;20641;-88
2022/07/09 10:20:33;;;;;;;6.75;2.63;;;;;;;;;;6185922;28;20065;-88
2022/07/09 10:23:37;;;;;;;3.50;2.47;;;;;;;;;;6186010;28;20358;-88
2022/07/09 10:26:42;;;;;;;7.00;2.55;;;;;;;;;;6186958;28;20100;-88
2022/07/09 10:29:53;;;;;;;3.55;2.13;;;;;;;;;;6184055;28;20022;-88
2022/07/09 10:33:12;;;;;;;7.37;2.30;;;;;;;;;;6185514;28;20541;-88
2022/07/09 10:36:17;;;;;;;4.72;2.20;;;;;;;;;;6186113;28;20359;-88
2022/07/09 10:39:17;;;;;;;3.25;1.90;;;;;;;;;;6184835;28;20057;-88
2022/07/09 10:42:20;;;;;;;3.85;1.42;;;;;;;;;;6185401;28;20424;-88
2022/07/09 10:45:22;;;;;;;24.83;2.05;;;;;;;;;;6186764;28;20029;-88
2022/07/09 10:48:31;;;;;;;2.00;1.25;;;;;;;;;;6186166;28;20157;-88
2022/07/09 10:51:31;;;;;;;3.10;1.48;;;;;;;;;;6187592;28;20473;-88
2022/07/09 10:54:31;;;;;;;5.40;1.67;;;;;;;;;;6185905;28;20022;-88
2022/07/09 10:57:34;;;;;;;4.37;1.53;;;;;;;;;;6186306;28;20371;-88
2022/07/09 11:00:35;;;;;;;4.05;1.55;;;;;;;;;;6190107;28;20029;-88
2022/07/09 11:03:35;;;;;;;3.33;1.75;;;;;;;;;;6188072;28;20022;-88
2022/07/09 11:06:45;;;;;;;5.67;2.03;;;;;;;;;;6191002;28;20064;-88
2022/07/09 11:09:46;;;;;;;3.77;1.70;;;;;;;;;;6174949;28;20029;-88
2022/07/09 11:12:49;;;;;;;5.23;2.07;;;;;;;;;;6197877;28;20399;-88
2022/07/09 11:15:49;;;;;;;3.78;1.70;;;;;;;;;;6190320;28;20424;-88
2022/07/09 11:18:49;;;;;;;5.00;1.43;;;;;;;;;;6193836;28;20390;-88
2022/07/09 11:21:50;;;;;;;2.03;0.98;;;;;;;;;;6192030;28;20030;-88
2022/07/09 11:24:50;;;;;;;1.47;1.13;;;;;;;;;;6191300;28;20422;-88
2022/07/09 11:27:50;;;;;;;2.78;1.35;;;;;;;;;;6191819;28;20014;-88
2022/07/09 11:31:04;;;;;;;3.10;1.10;;;;;;;;;;6190428;28;20647;-88
2022/07/09 11:34:13;;;;;;;4.10;1.25;;;;;;;;;;6195863;28;20018;-88
2022/07/09 11:37:22;;;;;;;3.60;1.40;;;;;;;;;;6190329;28;20036;-89
2022/07/09 11:40:22;;;;;;;4.55;1.13;;;;;;;;;;6200504;28;20029;-88
2022/07/09 11:43:23;;;;;;;1.80;1.17;;;;;;;;;;6190476;28;20026;-89
2022/07/09 11:46:23;;;;;;;1.83;0.80;;;;;;;;;;6190439;28;20213;-88
2022/07/09 11:49:31;;;;;;;4.82;1.15;;;;;;;;;;6190671;28;20520;-88
2022/07/09 11:52:31;;;;;;;2.60;1.23;;;;;;;;;;6183846;28;20021;-87
2022/07/09 11:55:32;;;;;;;4.80;0.93;;;;;;;;;;6191964;28;20026;-88
2022/07/09 11:58:32;;;;;;;2.95;1.35;;;;;;;;;;6188355;28;20418;-88
2022/07/09 12:01:32;;;;;;;4.13;1.17;;;;;;;;;;6185233;28;21153;-89
2022/07/09 12:04:33;;;;;;;4.93;1.00;;;;;;;;;;6175395;28;20027;-88
2022/07/09 12:07:34;;;;;;;5.50;1.40;;;;;;;;;;6181571;28;20504;-88
2022/07/09 12:10:34;;;;;;;;;;;;;;;;;;6186446;28;20423;-88
2022/07/09 12:13:34;;;;;;;2.55;0.98;;;;;;;;;;6183815;28;20294;-88
2022/07/09 12:16:34;;;;;;;2.67;1.10;;;;;;;;;;6178085;28;20034;-88
2022/07/09 12:19:35;;;;;;;2.10;0.88;;;;;;;;;;6175565;28;20101;-88
2022/07/09 12:22:35;;;;;;;2.50;1.17;;;;;;;;;;6179893;28;20497;-88
2022/07/09 12:25:35;;;;;;;2.53;1.00;;;;;;;;;;6181906;28;20125;-87
2022/07/09 12:28:35;;;;;;;1.87;0.80;;;;;;;;;;6180788;28;20407;-87
2022/07/09 12:31:39;;;;;;;1.33;1.00;;;;;;;;;;6175416;28;20022;-87
2022/07/09 12:34:39;;;;;;;2.88;1.77;;;;;;;;;;6186013;28;20101;-88
2022/07/09 12:37:40;;;;;;;2.50;1.20;;;;;;;;;;6184119;28;20029;-87
2022/07/09 12:40:40;;;;;;;1.10;1.00;;;;;;;;;;6186843;28;20042;-87
2022/07/09 12:43:40;;;;;;;1.80;1.03;;;;;;;;;;6178760;28;20393;-88
2022/07/09 12:46:41;;;;;;;3.57;1.10;;;;;;;;;;6184884;28;20647;-87
2022/07/09 12:49:41;;;;;;;2.05;0.80;;;;;;;;;;6184128;28;20466;-88
2022/07/09 12:52:41;;;;;;;2.10;1.00;;;;;;;;;;6178412;28;20022;-88
2022/07/09 12:55:42;;;;;;;1.70;0.87;;;;;;;;;;6181225;28;20228;-88
2022/07/09 12:58:42;;;;;;;2.03;0.97;;;;;;;;;;6179172;28;20014;-88
2022/07/09 13:01:42;;;;;;;1.35;0.90;;;;;;;;;;6179438;28;20430;-89
2022/07/09 13:04:43;;;;;;;3.28;1.25;;;;;;;;;;6175810;28;20323;-89
2022/07/09 13:07:43;;;;;;;2.10;1.00;;;;;;;;;;6183819;28;20022;-88
2022/07/09 13:10:43;;;;;;;2.33;1.20;;;;;;;;;;6184192;28;20030;-88
2022/07/09 13:13:43;;;;;;;;;;;;;;;;;;6187182;28;20033;-88
2022/07/09 13:16:43;;;;;;;3.63;1.10;;;;;;;;;;6186903;28;19909;-88
2022/07/09 13:19:43;;;;;;;;;;;;;;;;;;6186949;28;20053;-88
2022/07/09 13:22:44;;;;;;;2.92;1.00;;;;;;;;;;6196479;28;20290;-88
2022/07/09 13:25:44;;;;;;;5.60;1.20;;;;;;;;;;6185581;28;20038;-88
2022/07/09 13:28:44;;;;;;;4.10;1.10;;;;;;;;;;6185190;28;20053;-89
2022/07/09 13:31:44;;;;;;;2.13;1.13;;;;;;;;;;6188131;28;20025;-88
2022/07/09 13:34:44;;;;;;;4.03;1.53;;;;;;;;;;6170976;28;20018;-87
2022/07/09 13:37:45;;;;;;;2.38;1.10;;;;;;;;;;6184513;28;20029;-87
2022/07/09 13:40:45;;;;;;;3.80;1.13;;;;;;;;;;6186896;28;20022;-87
2022/07/09 13:43:45;;;;;;;1.13;0.70;;;;;;;;;;6175446;28;20056;-87
2022/07/09 13:46:46;;;;;;;;;;;;;;;;;;6183375;28;20045;-88
2022/07/09 13:49:46;;;;;;;1.58;0.98;;;;;;;;;;6186601;28;19910;-87
2022/07/09 13:52:46;;;;;;;;;;;;;;;;;;6184536;28;20026;-88
2022/07/09 13:55:46;;;;;;;2.45;1.05;;;;;;;;;;6192500;28;20344;-88
2022/07/09 13:58:47;;;;;;;1.42;1.20;;;;;;;;;;6185368;28;20477;-87
2022/07/09 14:01:47;;;;;;;4.00;0.93;;;;;;;;;;6184245;28;20006;-87
2022/07/09 14:04:49;;;;;;;;;;;;;;;;;;6185649;28;20026;-87
2022/07/09 14:07:49;;;;;;;3.03;1.77;;;;;;;;;;6179145;28;20389;-87
2022/07/09 14:10:51;;;;;;;;;;;;;;;;;;6192850;28;20019;-87
2022/07/09 14:13:53;;;;;;;3.85;1.67;;;;;;;;;;6186441;28;19940;-88
2022/07/09 14:16:53;;;;;;;3.88;1.65;;;;;;;;;;6186318;28;20037;-87
2022/07/09 14:19:53;;;;;;;;;;;;;;;;;;6191391;28;20053;-87
2022/07/09 14:22:53;;;;;;;3.75;1.33;;;;;;;;;;6178983;28;19952;-87
2022/07/09 14:25:54;;;;;;;;;;;;;;;;;;6185324;28;20038;-87
2022/07/09 14:28:54;;;;;;;1.95;1.40;;;;;;;;;;6184224;28;19913;-87
2022/07/09 14:31:54;;;;;;;1.47;1.37;;;;;;;;;;6176510;28;20109;-87
2022/07/09 14:34:54;;;;;;;3.90;1.17;;;;;;;;;;6186790;28;20025;-87
2022/07/09 14:37:54;;;;;;;3.77;1.43;;;;;;;;;;6183901;28;20018;-88
2022/07/09 14:40:55;;;;;;;4.97;1.40;;;;;;;;;;6187433;28;20014;-87
2022/07/09 14:43:55;;;;;;;2.03;1.30;;;;;;;;;;6187502;28;20386;-87
2022/07/09 14:46:58;;;;;;;4.90;1.13;;;;;;;;;;6186930;28;20036;-88
2022/07/09 14:49:58;;;;;;;2.53;1.33;;;;;;;;;;6184994;28;20493;-88
2022/07/09 14:52:58;;;;;;;1.63;1.43;;;;;;;;;;6187120;28;20054;-88
2022/07/09 14:55:59;;;;;;;2.43;1.37;;;;;;;;;;6186220;28;20025;-88
2022/07/09 14:58:59;;;;;;;2.63;1.17;;;;;;;;;;6187497;28;20023;-88
2022/07/09 15:01:59;;;;;;;5.60;2.33;;;;;;;;;;6183152;28;20018;-89
2022/07/09 15:05:00;;;;;;;2.33;1.17;;;;;;;;;;6186471;28;20255;-88
2022/07/09 15:08:00;;;;;;;2.07;1.20;;;;;;;;;;6179569;28;20019;-88
2022/07/09 15:11:00;;;;;;;1.80;1.00;;;;;;;;;;6183398;28;20022;-88
2022/07/09 15:14:00;;;;;;;1.70;0.80;;;;;;;;;;6178963;28;20113;-88
2022/07/09 15:17:02;;;;;;;3.43;1.23;;;;;;;;;;6181554;28;20424;-88
2022/07/09 15:20:02;;;;;;;2.08;1.20;;;;;;;;;;6187648;28;20569;-88
2022/07/09 15:23:02;;;;;;;2.00;1.23;;;;;;;;;;6182518;28;20054;-88
2022/07/09 15:26:02;;;;;;;2.57;1.13;;;;;;;;;;6184870;28;20034;-88
2022/07/09 15:29:03;;;;;;;2.10;1.07;;;;;;;;;;6185258;28;20390;-88
2022/07/09 15:32:03;;;;;;;3.10;1.43;;;;;;;;;;6186720;28;20018;-88
2022/07/09 15:35:04;;;;;;;2.60;1.20;;;;;;;;;;6174873;28;20793;-88
2022/07/09 15:38:04;;;;;;;1.90;1.50;;;;;;;;;;6178908;28;20011;-87
2022/07/09 15:41:06;;;;;;;2.03;1.50;;;;;;;;;;6169961;28;20018;-88
2022/07/09 15:44:06;;;;;;;;;;;;;;;;;;6175656;28;20360;-88
2022/07/09 15:47:06;;;;;;;3.20;1.67;;;;;;;;;;6197903;28;19914;-88
2022/07/09 15:50:07;;;;;;;4.67;1.00;;;;;;;;;;6186171;28;20061;-87
2022/07/09 15:53:07;;;;;;;3.28;1.33;;;;;;;;;;6182141;28;20474;-88
2022/07/09 15:56:08;;;;;;;3.63;1.93;;;;;;;;;;6182892;28;20022;-88
2022/07/09 15:59:08;;;;;;;1.57;1.23;;;;;;;;;;6184034;28;20185;-88
2022/07/09 16:02:08;;;;;;;3.30;1.37;;;;;;;;;;6181367;28;20019;-87
2022/07/09 16:05:08;;;;;;;2.40;1.47;;;;;;;;;;6177010;28;20065;-87
2022/07/09 16:08:09;;;;;;;1.77;1.40;;;;;;;;;;6187204;28;20397;-87
2022/07/09 16:14:28;;;;;;;4.53;1.40;;;;;;;;;;6181832;28;20034;-87
2022/07/09 16:17:28;;;;;;;3.73;1.43;;;;;;;;;;6184674;28;20556;-87
2022/07/09 16:20:28;;;;;;;3.90;1.37;;;;;;;;;;6187568;28;20015;-87
2022/07/09 16:23:28;;;;;;;3.90;1.50;;;;;;;;;;6177817;28;20054;-87
2022/07/09 16:26:29;;;;;;;2.77;2.03;;;;;;;;;;6183386;28;20042;-86
2022/07/09 16:29:29;;;;;;;6.88;1.60;;;;;;;;;;6190092;28;20030;-87
2022/07/09 16:32:29;;;;;;;3.17;1.30;;;;;;;;;;6183881;28;20041;-86
2022/07/09 16:35:29;;;;;;;3.37;1.93;;;;;;;;;;6176774;28;20102;-86
2022/07/09 16:38:29;;;;;;;5.03;1.27;;;;;;;;;;6182425;28;20015;-86
2022/07/09 16:41:30;;;;;;;4.60;1.47;;;;;;;;;;6184650;28;20018;-86
2022/07/09 16:44:30;;;;;;;1.07;1.07;;;;;;;;;;6181030;28;20402;-85
2022/07/09 16:47:30;;;;;;;2.30;1.50;;;;;;;;;;6189697;28;20046;-86
2022/07/09 16:50:30;;;;;;;5.23;2.40;;;;;;;;;;6182834;28;20045;-86
2022/07/09 16:53:31;;;;;;;5.13;2.33;;;;;;;;;;6178271;28;20029;-85
2022/07/09 16:56:32;;;;;;;4.10;2.07;;;;;;;;;;6182642;28;20014;-85
2022/07/09 16:59:33;;;;;;;4.57;1.77;;;;;;;;;;6187193;28;20344;-85
2022/07/09 17:02:33;;;;;;;3.07;1.30;;;;;;;;;;6187544;28;20014;-85
2022/07/09 17:05:33;;;;;;;3.47;1.43;;;;;;;;;;6170719;28;20022;-84
2022/07/09 17:08:33;;;;;;;4.13;1.33;;;;;;;;;;6181062;28;20105;-85
2022/07/09 17:11:33;;;;;;;2.27;1.40;;;;;;;;;;6177277;28;20045;-84
2022/07/09 17:14:34;;;;;;;3.27;1.80;;;;;;;;;;6174136;28;20018;-84
2022/07/09 17:17:34;;;;;;;4.70;1.55;;;;;;;;;;6178929;28;20523;-85
2022/07/09 17:20:36;;;;;;;3.10;1.45;;;;;;;;;;6191045;28;20057;-84
2022/07/09 17:23:36;;;;;;;3.20;1.13;;;;;;;;;;6176363;28;20094;-85
2022/07/09 17:26:36;;;;;;;3.17;0.93;;;;;;;;;;6189785;28;20031;-85
2022/07/09 17:29:36;;;;;;;4.53;1.67;;;;;;;;;;6176724;28;20049;-84
2022/07/09 17:32:36;;;;;;;3.20;1.30;;;;;;;;;;6179607;28;20566;-85
2022/07/09 17:35:37;;;;;;;2.37;1.47;;;;;;;;;;6173528;28;20019;-84
2022/07/09 17:38:37;;;;;;;3.63;2.10;;;;;;;;;;6182170;28;20128;-84
2022/07/09 17:41:38;;;;;;;2.30;1.60;;;;;;;;;;6183716;28;20124;-84
2022/07/09 17:44:39;;;;;;;4.10;1.35;;;;;;;;;;6184037;28;20515;-84
2022/07/09 17:47:39;;;;;;;2.00;1.23;;;;;;;;;;6175975;28;20042;-84
2022/07/09 17:50:39;;;;;;;3.97;1.30;;;;;;;;;;6180684;28;20101;-84
2022/07/09 17:53:41;;;;;;;1.30;1.00;;;;;;;;;;6185287;28;20031;-84
2022/07/09 17:56:42;;;;;;;1.65;1.00;;;;;;;;;;6186626;28;20029;-84
2022/07/09 17:59:43;;;;;;;4.10;1.50;;;;;;;;;;6189218;28;20064;-84
2022/07/09 18:02:44;;;;;;;4.20;1.10;;;;;;;;;;6187330;28;20018;-84
2022/07/09 18:05:44;;;;;;;2.65;1.20;;;;;;;;;;6186156;28;20042;-84
2022/07/09 18:08:45;;;;;;;2.42;1.30;;;;;;;;;;6177438;28;20022;-84
2022/07/09 18:11:45;;;;;;;4.80;1.40;;;;;;;;;;6183696;28;20018;-84